Ana Sayfa
METAR-TAF:

METAR-TAF

Havaalanları :

Resistencia, Arjantin

Enlem: 27-27S, Boylam: 059-03W, yükseklik: 53 m

Güncel hava durumu gözlemi

Rapor saat 05:00 UTC de 40 dakika önce yapıldı.
Rüzgar güneybatıdan 4 kt
Sıcaklık 9°C
Nem 87%
Basınç 1023 hPa
Görüş mesafesi 10 km veya daha fazla
1500 m altında bulut yok ve kümülonimbus yok

METAR: SARE 270500Z 22004KT CAVOK 09/07 Q1023

Saat: 02:40 (05:40 UTC)

Tahmin

Rapor saat 05:00 UTC de 40 dakika önce yapıldı.
Ayın 27'si saat 06 UTC'den ayın 28'si saat 06 UTC'ye kadar geçerli Tahmin
Rüzgar güneydan 5 kt
Görüş mesafesi 10 km veya daha fazla
4000 ft yükseklikte parçalı çok bulutlu

TAF: SARE 270500Z 2706/2806 18005KT 9999 BKN040 TX13/2718Z TN07/2709Z

4.000'den fazla havaalanı için hava durumu gözlemleri ve tahminleri (METAR ve TAF raporları).

Kullanılabilir istasyonlar harita üzerinde sarı ve kırmızı noktalarla gösterilir.

İstasyonun adını görmek için fareyi noktanın üzerinde gezdirin.

Sonrasında hava gözlem ve tahminlerini görmek için tıklayın.

Haritayı değiştirmek için: yaklaştırmak için siyah artı işaretli yeşil düğmeye ve uzaklaştırmak için de eksi işaretli düğmeye hızla tıklayın; bitişik haritalar için yeşil okları kullanın.


METAR-TAF: